sensor_id;sensor_type;location;lat;lon;timestamp;pressure;altitude;pressure_sealevel;temperature;humidity
37170;BME280;23062;13.952;100.608;2024-01-11T00:04:03;1012.37;;;31.29;70.09
37170;BME280;23062;13.952;100.608;2024-01-11T00:08:49;1012.47;;;31.28;69.98
37170;BME280;23062;13.952;100.608;2024-01-11T00:13:31;1012.52;;;31.30;70.14
37170;BME280;23062;13.952;100.608;2024-01-11T00:18:15;1012.64;;;31.28;69.80
37170;BME280;23062;13.952;100.608;2024-01-11T00:22:58;1012.72;;;31.29;69.84
37170;BME280;23062;13.952;100.608;2024-01-11T00:27:38;1012.82;;;31.28;69.84
37170;BME280;23062;13.952;100.608;2024-01-11T00:32:23;1012.84;;;31.29;69.76
37170;BME280;23062;13.952;100.608;2024-01-11T00:37:02;1012.90;;;31.31;69.57
37170;BME280;23062;13.952;100.608;2024-01-11T00:41:47;1013.02;;;31.24;69.63
37170;BME280;23062;13.952;100.608;2024-01-11T00:46:32;1013.08;;;31.28;69.29
37170;BME280;23062;13.952;100.608;2024-01-11T00:51:16;1013.16;;;31.16;69.66
37170;BME280;23062;13.952;100.608;2024-01-11T00:56:02;1013.26;;;31.18;69.21
37170;BME280;23062;13.952;100.608;2024-01-11T01:00:50;1013.35;;;31.02;70.42
37170;BME280;23062;13.952;100.608;2024-01-11T01:05:28;1013.49;;;31.05;70.58
37170;BME280;23062;13.952;100.608;2024-01-11T01:10:04;1013.60;;;31.06;70.09
37170;BME280;23062;13.952;100.608;2024-01-11T01:14:42;1013.71;;;31.04;70.54
37170;BME280;23062;13.952;100.608;2024-01-11T01:19:25;1013.78;;;31.18;69.57
37170;BME280;23062;13.952;100.608;2024-01-11T01:24:10;1013.83;;;31.12;69.84
37170;BME280;23062;13.952;100.608;2024-01-11T01:28:53;1013.88;;;31.33;68.98
37170;BME280;23062;13.952;100.608;2024-01-11T01:33:38;1013.93;;;31.23;69.05
37170;BME280;23062;13.952;100.608;2024-01-11T01:38:18;1013.97;;;31.21;69.29
37170;BME280;23062;13.952;100.608;2024-01-11T01:43:06;1014.05;;;31.15;69.65
37170;BME280;23062;13.952;100.608;2024-01-11T01:47:48;1014.12;;;31.23;70.32
37170;BME280;23062;13.952;100.608;2024-01-11T01:52:25;1014.13;;;31.33;69.81
37170;BME280;23062;13.952;100.608;2024-01-11T01:57:09;1014.19;;;31.43;68.71
37170;BME280;23062;13.952;100.608;2024-01-11T02:01:54;1014.25;;;31.52;69.12
37170;BME280;23062;13.952;100.608;2024-01-11T02:06:39;1014.27;;;31.57;68.70
37170;BME280;23062;13.952;100.608;2024-01-11T02:11:23;1014.28;;;31.57;68.94
37170;BME280;23062;13.952;100.608;2024-01-11T02:16:08;1014.19;;;31.60;68.38
37170;BME280;23062;13.952;100.608;2024-01-11T02:20:50;1014.19;;;31.64;68.34
37170;BME280;23062;13.952;100.608;2024-01-11T02:25:34;1014.24;;;31.67;68.17
37170;BME280;23062;13.952;100.608;2024-01-11T02:30:18;1014.26;;;31.69;67.91
37170;BME280;23062;13.952;100.608;2024-01-11T02:34:56;1014.30;;;31.68;68.20
37170;BME280;23062;13.952;100.608;2024-01-11T02:39:34;1014.24;;;31.70;67.96
37170;BME280;23062;13.952;100.608;2024-01-11T02:44:12;1014.29;;;31.73;67.35
37170;BME280;23062;13.952;100.608;2024-01-11T02:48:54;1014.30;;;31.76;66.79
37170;BME280;23062;13.952;100.608;2024-01-11T02:53:38;1014.20;;;31.78;66.59
37170;BME280;23062;13.952;100.608;2024-01-11T02:58:21;1014.19;;;31.80;65.95
37170;BME280;23062;13.952;100.608;2024-01-11T03:03:06;1014.18;;;31.80;66.53
37170;BME280;23062;13.952;100.608;2024-01-11T03:07:51;1014.18;;;31.82;65.54
37170;BME280;23062;13.952;100.608;2024-01-11T03:12:27;1014.16;;;31.84;65.74
37170;BME280;23062;13.952;100.608;2024-01-11T03:17:12;1014.11;;;31.69;69.10
37170;BME280;23062;13.952;100.608;2024-01-11T03:21:48;1014.11;;;31.63;68.82
37170;BME280;23062;13.952;100.608;2024-01-11T03:26:30;1013.98;;;31.69;68.52
37170;BME280;23062;13.952;100.608;2024-01-11T03:31:10;1013.96;;;31.70;68.10
37170;BME280;23062;13.952;100.608;2024-01-11T03:35:46;1013.90;;;31.72;67.83
37170;BME280;23062;13.952;100.608;2024-01-11T03:40:26;1013.88;;;31.77;67.47
37170;BME280;23062;13.952;100.608;2024-01-11T03:45:11;1013.80;;;31.78;67.70
37170;BME280;23062;13.952;100.608;2024-01-11T03:49:55;1013.79;;;31.81;67.29
37170;BME280;23062;13.952;100.608;2024-01-11T03:54:37;1013.72;;;31.88;66.62
37170;BME280;23062;13.952;100.608;2024-01-11T03:59:20;1013.63;;;31.89;66.47
37170;BME280;23062;13.952;100.608;2024-01-11T04:04:05;1013.60;;;31.96;66.28
37170;BME280;23062;13.952;100.608;2024-01-11T04:08:45;1013.57;;;32.00;65.77
37170;BME280;23062;13.952;100.608;2024-01-11T04:13:29;1013.53;;;31.98;64.52
37170;BME280;23062;13.952;100.608;2024-01-11T04:18:13;1013.35;;;31.94;64.12
37170;BME280;23062;13.952;100.608;2024-01-11T04:22:50;1013.25;;;31.92;63.92
37170;BME280;23062;13.952;100.608;2024-01-11T04:27:32;1013.19;;;31.92;63.15
37170;BME280;23062;13.952;100.608;2024-01-11T04:32:10;1013.12;;;31.93;62.17
37170;BME280;23062;13.952;100.608;2024-01-11T04:36:49;1013.00;;;31.90;62.07
37170;BME280;23062;13.952;100.608;2024-01-11T04:41:26;1012.90;;;31.94;61.75
37170;BME280;23062;13.952;100.608;2024-01-11T04:46:19;1012.83;;;32.01;61.40
37170;BME280;23062;13.952;100.608;2024-01-11T04:51:03;1012.74;;;32.02;61.38
37170;BME280;23062;13.952;100.608;2024-01-11T04:55:39;1012.72;;;32.13;60.84
37170;BME280;23062;13.952;100.608;2024-01-11T05:00:18;1012.63;;;32.14;60.87
37170;BME280;23062;13.952;100.608;2024-01-11T05:05:02;1012.47;;;32.17;60.80
37170;BME280;23062;13.952;100.608;2024-01-11T05:09:47;1012.40;;;32.18;60.59
37170;BME280;23062;13.952;100.608;2024-01-11T05:14:30;1012.28;;;32.16;60.62
37170;BME280;23062;13.952;100.608;2024-01-11T05:19:14;1012.12;;;32.19;60.61
37170;BME280;23062;13.952;100.608;2024-01-11T05:23:49;1012.06;;;32.25;60.13
37170;BME280;23062;13.952;100.608;2024-01-11T05:28:28;1011.96;;;32.22;60.40
37170;BME280;23062;13.952;100.608;2024-01-11T05:33:10;1011.94;;;32.25;60.29
37170;BME280;23062;13.952;100.608;2024-01-11T05:37:55;1011.80;;;32.30;59.53
37170;BME280;23062;13.952;100.608;2024-01-11T05:42:39;1011.76;;;32.24;60.04
37170;BME280;23062;13.952;100.608;2024-01-11T05:47:24;1011.66;;;32.23;60.02
37170;BME280;23062;13.952;100.608;2024-01-11T05:52:09;1011.56;;;32.39;58.97
37170;BME280;23062;13.952;100.608;2024-01-11T05:56:47;1011.49;;;32.37;59.27
37170;BME280;23062;13.952;100.608;2024-01-11T06:01:24;1011.38;;;32.32;59.26
37170;BME280;23062;13.952;100.608;2024-01-11T06:06:02;1011.30;;;32.30;59.30
37170;BME280;23062;13.952;100.608;2024-01-11T06:10:39;1011.17;;;32.29;59.20
37170;BME280;23062;13.952;100.608;2024-01-11T06:15:22;1011.08;;;32.24;59.41
37170;BME280;23062;13.952;100.608;2024-01-11T06:19:58;1010.94;;;32.21;59.68
37170;BME280;23062;13.952;100.608;2024-01-11T06:24:41;1010.92;;;32.20;59.82
37170;BME280;23062;13.952;100.608;2024-01-11T06:29:26;1010.79;;;32.21;59.66
37170;BME280;23062;13.952;100.608;2024-01-11T06:34:10;1010.70;;;32.21;60.54
37170;BME280;23062;13.952;100.608;2024-01-11T06:38:53;1010.56;;;32.23;60.35
37170;BME280;23062;13.952;100.608;2024-01-11T06:43:37;1010.44;;;32.25;58.81
37170;BME280;23062;13.952;100.608;2024-01-11T06:48:21;1010.36;;;32.24;59.44
37170;BME280;23062;13.952;100.608;2024-01-11T06:53:05;1010.22;;;32.25;59.40
37170;BME280;23062;13.952;100.608;2024-01-11T06:57:42;1010.13;;;32.33;58.64
37170;BME280;23062;13.952;100.608;2024-01-11T07:02:27;1010.10;;;32.33;57.22
37170;BME280;23062;13.952;100.608;2024-01-11T07:07:11;1009.96;;;32.33;57.19
37170;BME280;23062;13.952;100.608;2024-01-11T07:11:55;1009.83;;;32.40;56.62
37170;BME280;23062;13.952;100.608;2024-01-11T07:16:38;1009.84;;;32.40;55.62
37170;BME280;23062;13.952;100.608;2024-01-11T07:21:27;1009.78;;;32.46;56.33
37170;BME280;23062;13.952;100.608;2024-01-11T07:26:12;1009.83;;;32.46;54.80
37170;BME280;23062;13.952;100.608;2024-01-11T07:30:56;1009.79;;;32.50;54.04
37170;BME280;23062;13.952;100.608;2024-01-11T07:35:40;1009.77;;;32.40;55.12
37170;BME280;23062;13.952;100.608;2024-01-11T07:40:19;1009.74;;;32.46;55.27
37170;BME280;23062;13.952;100.608;2024-01-11T07:44:56;1009.68;;;32.60;54.31
37170;BME280;23062;13.952;100.608;2024-01-11T07:49:42;1009.65;;;32.49;54.78
37170;BME280;23062;13.952;100.608;2024-01-11T07:54:25;1009.62;;;32.49;54.95
37170;BME280;23062;13.952;100.608;2024-01-11T07:59:08;1009.50;;;32.53;55.15
37170;BME280;23062;13.952;100.608;2024-01-11T08:03:54;1009.48;;;32.61;54.83
37170;BME280;23062;13.952;100.608;2024-01-11T08:08:37;1009.41;;;32.56;55.29
37170;BME280;23062;13.952;100.608;2024-01-11T08:13:16;1009.47;;;32.54;55.33
37170;BME280;23062;13.952;100.608;2024-01-11T08:17:52;1009.44;;;32.66;54.19
37170;BME280;23062;13.952;100.608;2024-01-11T08:22:30;1009.40;;;32.56;55.20
37170;BME280;23062;13.952;100.608;2024-01-11T08:27:16;1009.43;;;32.55;55.01
37170;BME280;23062;13.952;100.608;2024-01-11T08:32:02;1009.41;;;32.54;54.71
37170;BME280;23062;13.952;100.608;2024-01-11T08:36:41;1009.46;;;32.51;55.03
37170;BME280;23062;13.952;100.608;2024-01-11T08:41:25;1009.44;;;32.52;54.84
37170;BME280;23062;13.952;100.608;2024-01-11T08:46:06;1009.38;;;32.52;54.60
37170;BME280;23062;13.952;100.608;2024-01-11T08:50:48;1009.50;;;32.48;54.82
37170;BME280;23062;13.952;100.608;2024-01-11T08:55:31;1009.41;;;32.49;54.64
37170;BME280;23062;13.952;100.608;2024-01-11T09:00:08;1009.38;;;32.53;54.33
37170;BME280;23062;13.952;100.608;2024-01-11T09:04:53;1009.42;;;32.52;54.18
37170;BME280;23062;13.952;100.608;2024-01-11T09:09:29;1009.40;;;32.50;53.93
37170;BME280;23062;13.952;100.608;2024-01-11T09:14:08;1009.52;;;32.50;53.93
37170;BME280;23062;13.952;100.608;2024-01-11T09:18:51;1009.50;;;32.48;54.06
37170;BME280;23062;13.952;100.608;2024-01-11T09:23:28;1009.49;;;32.51;53.72
37170;BME280;23062;13.952;100.608;2024-01-11T09:28:07;1009.52;;;32.51;53.62
37170;BME280;23062;13.952;100.608;2024-01-11T09:32:52;1009.48;;;32.50;53.83
37170;BME280;23062;13.952;100.608;2024-01-11T09:37:36;1009.42;;;32.49;53.82
37170;BME280;23062;13.952;100.608;2024-01-11T09:42:13;1009.51;;;32.47;53.57
37170;BME280;23062;13.952;100.608;2024-01-11T09:46:55;1009.62;;;32.46;52.86
37170;BME280;23062;13.952;100.608;2024-01-11T09:51:41;1009.60;;;32.44;53.67
37170;BME280;23062;13.952;100.608;2024-01-11T09:56:28;1009.68;;;32.41;56.13
37170;BME280;23062;13.952;100.608;2024-01-11T10:01:12;1009.75;;;32.37;57.24
37170;BME280;23062;13.952;100.608;2024-01-11T10:05:57;1009.71;;;32.35;58.18
37170;BME280;23062;13.952;100.608;2024-01-11T10:10:42;1009.76;;;32.35;58.26
37170;BME280;23062;13.952;100.608;2024-01-11T10:15:29;1009.75;;;32.31;57.82
37170;BME280;23062;13.952;100.608;2024-01-11T10:20:06;1009.73;;;32.30;57.16
37170;BME280;23062;13.952;100.608;2024-01-11T10:24:59;1009.78;;;32.29;57.15
37170;BME280;23062;13.952;100.608;2024-01-11T10:29:37;1009.77;;;32.29;57.19
37170;BME280;23062;13.952;100.608;2024-01-11T10:34:15;1009.85;;;32.30;56.73
37170;BME280;23062;13.952;100.608;2024-01-11T10:39:02;1009.85;;;32.32;57.09
37170;BME280;23062;13.952;100.608;2024-01-11T10:43:47;1009.89;;;32.40;56.93
37170;BME280;23062;13.952;100.608;2024-01-11T10:48:38;1009.91;;;32.43;56.87
37170;BME280;23062;13.952;100.608;2024-01-11T10:58:25;1009.97;;;32.37;57.21
37170;BME280;23062;13.952;100.608;2024-01-11T11:03:04;1010.01;;;32.34;56.97
37170;BME280;23062;13.952;100.608;2024-01-11T11:07:53;1010.01;;;32.32;56.75
37170;BME280;23062;13.952;100.608;2024-01-11T11:12:31;1010.00;;;32.32;56.53
37170;BME280;23062;13.952;100.608;2024-01-11T11:17:09;1010.03;;;32.32;56.76
37170;BME280;23062;13.952;100.608;2024-01-11T11:21:53;1010.07;;;32.31;56.85
37170;BME280;23062;13.952;100.608;2024-01-11T11:26:32;1010.11;;;32.32;57.13
37170;BME280;23062;13.952;100.608;2024-01-11T11:36:12;1010.15;;;32.30;57.12
37170;BME280;23062;13.952;100.608;2024-01-11T11:40:59;1010.22;;;32.29;57.33
37170;BME280;23062;13.952;100.608;2024-01-11T11:45:43;1010.17;;;32.28;57.28
37170;BME280;23062;13.952;100.608;2024-01-11T11:50:27;1010.25;;;32.29;57.52
37170;BME280;23062;13.952;100.608;2024-01-11T11:55:12;1010.24;;;32.29;57.58
37170;BME280;23062;13.952;100.608;2024-01-11T11:59:56;1010.31;;;32.27;57.38
37170;BME280;23062;13.952;100.608;2024-01-11T12:04:33;1010.37;;;32.27;57.27
37170;BME280;23062;13.952;100.608;2024-01-11T12:09:10;1010.40;;;32.26;57.21
37170;BME280;23062;13.952;100.608;2024-01-11T12:13:47;1010.41;;;32.25;56.96
37170;BME280;23062;13.952;100.608;2024-01-11T12:18:29;1010.45;;;32.26;57.05
37170;BME280;23062;13.952;100.608;2024-01-11T12:23:14;1010.44;;;32.23;56.84
37170;BME280;23062;13.952;100.608;2024-01-11T12:27:50;1010.49;;;32.23;56.87
37170;BME280;23062;13.952;100.608;2024-01-11T12:32:33;1010.54;;;32.23;56.95
37170;BME280;23062;13.952;100.608;2024-01-11T12:37:10;1010.64;;;32.23;57.29
37170;BME280;23062;13.952;100.608;2024-01-11T12:41:55;1010.66;;;32.16;57.71
37170;BME280;23062;13.952;100.608;2024-01-11T12:46:36;1010.72;;;32.19;58.19
37170;BME280;23062;13.952;100.608;2024-01-11T12:51:17;1010.79;;;32.21;58.30
37170;BME280;23062;13.952;100.608;2024-01-11T12:56:06;1010.92;;;32.23;58.36
37170;BME280;23062;13.952;100.608;2024-01-11T13:00:50;1010.98;;;32.22;58.58
37170;BME280;23062;13.952;100.608;2024-01-11T13:05:28;1011.05;;;32.24;58.63
37170;BME280;23062;13.952;100.608;2024-01-11T13:10:15;1011.15;;;32.24;58.78
37170;BME280;23062;13.952;100.608;2024-01-11T13:15:00;1011.20;;;32.27;58.85
37170;BME280;23062;13.952;100.608;2024-01-11T13:19:44;1011.23;;;32.34;58.53
37170;BME280;23062;13.952;100.608;2024-01-11T13:24:28;1011.28;;;32.43;58.23
37170;BME280;23062;13.952;100.608;2024-01-11T13:29:12;1011.28;;;32.49;58.33
37170;BME280;23062;13.952;100.608;2024-01-11T13:33:57;1011.33;;;32.50;58.09
37170;BME280;23062;13.952;100.608;2024-01-11T13:38:44;1011.36;;;32.50;58.26
37170;BME280;23062;13.952;100.608;2024-01-11T13:43:29;1011.41;;;32.52;58.33
37170;BME280;23062;13.952;100.608;2024-01-11T13:48:10;1011.40;;;32.52;58.22
37170;BME280;23062;13.952;100.608;2024-01-11T13:52:54;1011.37;;;32.53;58.46
37170;BME280;23062;13.952;100.608;2024-01-11T13:57:40;1011.39;;;32.52;58.48
37170;BME280;23062;13.952;100.608;2024-01-11T14:02:28;1011.42;;;32.53;58.38
37170;BME280;23062;13.952;100.608;2024-01-11T14:07:13;1011.38;;;32.53;58.29
37170;BME280;23062;13.952;100.608;2024-01-11T14:11:57;1011.38;;;32.54;58.46
37170;BME280;23062;13.952;100.608;2024-01-11T14:16:43;1011.38;;;32.52;58.48
37170;BME280;23062;13.952;100.608;2024-01-11T14:21:32;1011.40;;;32.53;58.21
37170;BME280;23062;13.952;100.608;2024-01-11T14:26:15;1011.42;;;32.53;58.49
37170;BME280;23062;13.952;100.608;2024-01-11T14:31:00;1011.43;;;32.53;58.57
37170;BME280;23062;13.952;100.608;2024-01-11T14:35:48;1011.44;;;32.52;58.46
37170;BME280;23062;13.952;100.608;2024-01-11T14:43:29;1011.50;;;32.53;58.31
37170;BME280;23062;13.952;100.608;2024-01-11T14:48:14;1011.47;;;32.53;58.34
37170;BME280;23062;13.952;100.608;2024-01-11T14:52:59;1011.51;;;32.52;58.30
37170;BME280;23062;13.952;100.608;2024-01-11T14:57:39;1011.55;;;32.52;58.47
37170;BME280;23062;13.952;100.608;2024-01-11T15:02:25;1011.65;;;32.51;58.28
37170;BME280;23062;13.952;100.608;2024-01-11T15:07:12;1011.67;;;32.51;58.48
37170;BME280;23062;13.952;100.608;2024-01-11T15:11:57;1011.67;;;32.50;58.42
37170;BME280;23062;13.952;100.608;2024-01-11T15:16:44;1011.67;;;32.50;58.08
37170;BME280;23062;13.952;100.608;2024-01-11T15:21:33;1011.70;;;32.50;58.41
37170;BME280;23062;13.952;100.608;2024-01-11T15:26:17;1011.72;;;32.50;57.99
37170;BME280;23062;13.952;100.608;2024-01-11T15:30:59;1011.76;;;32.48;58.33
37170;BME280;23062;13.952;100.608;2024-01-11T15:35:43;1011.73;;;32.49;58.26
37170;BME280;23062;13.952;100.608;2024-01-11T15:40:26;1011.79;;;32.49;57.90
37170;BME280;23062;13.952;100.608;2024-01-11T15:45:12;1011.83;;;32.48;58.04
37170;BME280;23062;13.952;100.608;2024-01-11T15:49:50;1011.85;;;32.48;58.20
37170;BME280;23062;13.952;100.608;2024-01-11T15:54:34;1011.91;;;32.47;58.04
37170;BME280;23062;13.952;100.608;2024-01-11T15:59:19;1011.91;;;32.47;58.02
37170;BME280;23062;13.952;100.608;2024-01-11T16:04:06;1011.88;;;32.46;58.18
37170;BME280;23062;13.952;100.608;2024-01-11T16:08:55;1011.88;;;32.46;58.21
37170;BME280;23062;13.952;100.608;2024-01-11T16:13:35;1011.86;;;32.46;58.55
37170;BME280;23062;13.952;100.608;2024-01-11T16:18:19;1011.88;;;32.46;58.28
37170;BME280;23062;13.952;100.608;2024-01-11T16:23:00;1011.91;;;32.46;58.38
37170;BME280;23062;13.952;100.608;2024-01-11T16:27:45;1011.91;;;32.45;58.71
37170;BME280;23062;13.952;100.608;2024-01-11T16:32:32;1011.90;;;32.44;58.76
37170;BME280;23062;13.952;100.608;2024-01-11T16:37:24;1011.92;;;32.45;58.67
37170;BME280;23062;13.952;100.608;2024-01-11T16:42:08;1011.93;;;32.45;58.72
37170;BME280;23062;13.952;100.608;2024-01-11T16:46:52;1011.90;;;32.45;58.77
37170;BME280;23062;13.952;100.608;2024-01-11T16:51:31;1011.91;;;32.44;59.07
37170;BME280;23062;13.952;100.608;2024-01-11T16:56:17;1011.87;;;32.44;58.94
37170;BME280;23062;13.952;100.608;2024-01-11T17:01:04;1011.79;;;32.43;58.99
37170;BME280;23062;13.952;100.608;2024-01-11T17:05:50;1011.75;;;32.43;59.15
37170;BME280;23062;13.952;100.608;2024-01-11T17:10:37;1011.68;;;32.43;59.05
37170;BME280;23062;13.952;100.608;2024-01-11T17:15:20;1011.74;;;32.43;59.18
37170;BME280;23062;13.952;100.608;2024-01-11T17:19:56;1011.75;;;32.43;59.08
37170;BME280;23062;13.952;100.608;2024-01-11T17:24:41;1011.81;;;32.44;59.08
37170;BME280;23062;13.952;100.608;2024-01-11T17:29:26;1011.78;;;32.42;58.96
37170;BME280;23062;13.952;100.608;2024-01-11T17:34:11;1011.75;;;32.42;58.92
37170;BME280;23062;13.952;100.608;2024-01-11T17:38:54;1011.71;;;32.41;59.27
37170;BME280;23062;13.952;100.608;2024-01-11T17:43:40;1011.70;;;32.40;59.04
37170;BME280;23062;13.952;100.608;2024-01-11T17:48:25;1011.68;;;32.40;59.18
37170;BME280;23062;13.952;100.608;2024-01-11T17:53:14;1011.66;;;32.39;59.13
37170;BME280;23062;13.952;100.608;2024-01-11T17:57:57;1011.61;;;32.38;59.24
37170;BME280;23062;13.952;100.608;2024-01-11T18:02:42;1011.57;;;32.37;59.21
37170;BME280;23062;13.952;100.608;2024-01-11T18:07:25;1011.55;;;32.38;59.00
37170;BME280;23062;13.952;100.608;2024-01-11T18:12:05;1011.48;;;32.37;59.17
37170;BME280;23062;13.952;100.608;2024-01-11T18:16:49;1011.37;;;32.37;59.16
37170;BME280;23062;13.952;100.608;2024-01-11T18:21:33;1011.29;;;32.36;59.14
37170;BME280;23062;13.952;100.608;2024-01-11T18:26:20;1011.28;;;32.37;58.96
37170;BME280;23062;13.952;100.608;2024-01-11T18:31:12;1011.19;;;32.35;59.05
37170;BME280;23062;13.952;100.608;2024-01-11T18:35:53;1011.16;;;32.36;59.04
37170;BME280;23062;13.952;100.608;2024-01-11T18:40:37;1011.06;;;32.33;59.20
37170;BME280;23062;13.952;100.608;2024-01-11T18:45:21;1010.96;;;32.33;59.28
37170;BME280;23062;13.952;100.608;2024-01-11T18:50:05;1010.96;;;32.33;59.30
37170;BME280;23062;13.952;100.608;2024-01-11T18:54:50;1010.91;;;32.33;59.41
37170;BME280;23062;13.952;100.608;2024-01-11T18:59:36;1010.88;;;32.32;59.30
37170;BME280;23062;13.952;100.608;2024-01-11T19:04:22;1010.90;;;32.32;59.36
37170;BME280;23062;13.952;100.608;2024-01-11T19:09:06;1010.85;;;32.32;59.45
37170;BME280;23062;13.952;100.608;2024-01-11T19:13:51;1010.83;;;32.31;59.56
37170;BME280;23062;13.952;100.608;2024-01-11T19:18:32;1010.79;;;32.29;59.64
37170;BME280;23062;13.952;100.608;2024-01-11T19:23:19;1010.71;;;32.28;59.58
37170;BME280;23062;13.952;100.608;2024-01-11T19:28:01;1010.72;;;32.29;59.64
37170;BME280;23062;13.952;100.608;2024-01-11T19:32:42;1010.65;;;32.29;59.71
37170;BME280;23062;13.952;100.608;2024-01-11T19:37:27;1010.56;;;32.28;59.83
37170;BME280;23062;13.952;100.608;2024-01-11T19:42:12;1010.54;;;32.28;59.74
37170;BME280;23062;13.952;100.608;2024-01-11T19:46:54;1010.49;;;32.27;59.99
37170;BME280;23062;13.952;100.608;2024-01-11T19:51:39;1010.36;;;32.27;60.18
37170;BME280;23062;13.952;100.608;2024-01-11T19:56:22;1010.29;;;32.28;60.26
37170;BME280;23062;13.952;100.608;2024-01-11T20:01:08;1010.24;;;32.28;60.50
37170;BME280;23062;13.952;100.608;2024-01-11T20:05:53;1010.16;;;32.27;60.86
37170;BME280;23062;13.952;100.608;2024-01-11T20:10:39;1010.13;;;32.27;60.98
37170;BME280;23062;13.952;100.608;2024-01-11T20:15:24;1010.09;;;32.27;61.16
37170;BME280;23062;13.952;100.608;2024-01-11T20:20:01;1010.08;;;32.27;61.46
37170;BME280;23062;13.952;100.608;2024-01-11T20:24:45;1010.04;;;32.28;61.12
37170;BME280;23062;13.952;100.608;2024-01-11T20:30:37;1010.06;;;32.29;61.63
37170;BME280;23062;13.952;100.608;2024-01-11T20:35:21;1010.07;;;32.30;61.86
37170;BME280;23062;13.952;100.608;2024-01-11T20:40:06;1010.02;;;32.29;61.55
37170;BME280;23062;13.952;100.608;2024-01-11T20:44:51;1010.02;;;32.27;62.00
37170;BME280;23062;13.952;100.608;2024-01-11T20:49:35;1010.03;;;32.29;61.86
37170;BME280;23062;13.952;100.608;2024-01-11T20:54:20;1010.03;;;32.28;62.35
37170;BME280;23062;13.952;100.608;2024-01-11T20:59:05;1010.03;;;32.29;62.49
37170;BME280;23062;13.952;100.608;2024-01-11T21:03:41;1010.06;;;32.22;63.87
37170;BME280;23062;13.952;100.608;2024-01-11T21:08:18;1010.09;;;32.19;64.26
37170;BME280;23062;13.952;100.608;2024-01-11T21:12:55;1010.05;;;32.12;65.16
37170;BME280;23062;13.952;100.608;2024-01-11T21:17:39;1010.06;;;32.08;65.11
37170;BME280;23062;13.952;100.608;2024-01-11T21:22:17;1010.07;;;32.06;65.67
37170;BME280;23062;13.952;100.608;2024-01-11T21:27:01;1010.09;;;32.07;65.99
37170;BME280;23062;13.952;100.608;2024-01-11T21:31:37;1010.10;;;31.71;67.26
37170;BME280;23062;13.952;100.608;2024-01-11T21:36:21;1010.15;;;31.46;68.82
37170;BME280;23062;13.952;100.608;2024-01-11T21:41:08;1010.19;;;31.38;69.34
37170;BME280;23062;13.952;100.608;2024-01-11T21:45:53;1010.25;;;31.37;69.67
37170;BME280;23062;13.952;100.608;2024-01-11T21:50:29;1010.24;;;31.38;69.68
37170;BME280;23062;13.952;100.608;2024-01-11T21:55:13;1010.27;;;31.35;69.54
37170;BME280;23062;13.952;100.608;2024-01-11T21:59:57;1010.35;;;31.28;70.24
37170;BME280;23062;13.952;100.608;2024-01-11T22:04:42;1010.39;;;31.29;69.94
37170;BME280;23062;13.952;100.608;2024-01-11T22:09:25;1010.37;;;31.23;70.49
37170;BME280;23062;13.952;100.608;2024-01-11T22:14:09;1010.41;;;31.19;70.77
37170;BME280;23062;13.952;100.608;2024-01-11T22:18:54;1010.49;;;31.16;70.73
37170;BME280;23062;13.952;100.608;2024-01-11T22:23:39;1010.53;;;31.12;71.16
37170;BME280;23062;13.952;100.608;2024-01-11T22:28:22;1010.53;;;31.10;71.12
37170;BME280;23062;13.952;100.608;2024-01-11T22:33:04;1010.59;;;31.18;71.35
37170;BME280;23062;13.952;100.608;2024-01-11T22:37:49;1010.64;;;31.17;71.18
37170;BME280;23062;13.952;100.608;2024-01-11T22:42:28;1010.64;;;31.08;71.34
37170;BME280;23062;13.952;100.608;2024-01-11T22:47:06;1010.71;;;31.13;70.94
37170;BME280;23062;13.952;100.608;2024-01-11T22:51:42;1010.80;;;31.06;71.55
37170;BME280;23062;13.952;100.608;2024-01-11T22:56:27;1010.84;;;31.41;69.69
37170;BME280;23062;13.952;100.608;2024-01-11T23:01:08;1010.91;;;31.49;69.33
37170;BME280;23062;13.952;100.608;2024-01-11T23:05:45;1010.92;;;31.52;69.06
37170;BME280;23062;13.952;100.608;2024-01-11T23:10:22;1011.00;;;31.54;69.00
37170;BME280;23062;13.952;100.608;2024-01-11T23:14:59;1011.04;;;31.56;68.92
37170;BME280;23062;13.952;100.608;2024-01-11T23:19:36;1011.07;;;31.56;68.66
37170;BME280;23062;13.952;100.608;2024-01-11T23:24:17;1011.10;;;31.57;68.85
37170;BME280;23062;13.952;100.608;2024-01-11T23:29:02;1011.14;;;31.56;68.95
37170;BME280;23062;13.952;100.608;2024-01-11T23:33:47;1011.15;;;31.54;68.93
37170;BME280;23062;13.952;100.608;2024-01-11T23:38:23;1011.26;;;31.55;68.98
37170;BME280;23062;13.952;100.608;2024-01-11T23:43:07;1011.32;;;31.54;69.09
37170;BME280;23062;13.952;100.608;2024-01-11T23:47:46;1011.45;;;31.54;69.08
37170;BME280;23062;13.952;100.608;2024-01-11T23:52:30;1011.50;;;31.53;69.10
37170;BME280;23062;13.952;100.608;2024-01-11T23:57:07;1011.61;;;31.54;69.15
